Time;durP1;ratioP1;P1;durP2;ratioP2;P2;SDS_P1;SDS_P2;PMS_P1;PMS_P2;Temp;Humidity;BMP_temperature;BMP_pressure;BME280_temperature;BME280_humidity;BME280_pressure;Samples;Min_cycle;Max_cycle;Signal;HPM_P1;HPM_P2
2021/07/19 00:00:46;;;;;;;9.75;5.82;;;19.80;97.30;;;;;;4988339;28;20034;-84
2021/07/19 00:03:11;;;;;;;8.65;5.10;;;19.80;97.90;;;;;;4982571;28;20551;-83
2021/07/19 00:05:37;;;;;;;8.57;6.05;;;19.80;97.60;;;;;;4989541;28;20033;-83
2021/07/19 00:08:03;;;;;;;12.70;5.88;;;19.70;97.60;;;;;;4997471;28;20734;-83
2021/07/19 00:10:28;;;;;;;10.45;5.22;;;19.70;97.40;;;;;;4990764;28;20022;-84
2021/07/19 00:12:54;;;;;;;11.20;5.60;;;19.70;97.60;;;;;;4993750;28;20021;-84
2021/07/19 00:15:24;;;;;;;9.25;5.60;;;19.60;98.30;;;;;;4983825;28;20459;-83
2021/07/19 00:17:50;;;;;;;16.00;6.28;;;19.60;98.30;;;;;;4987015;28;20460;-83
2021/07/19 00:20:15;;;;;;;16.58;5.57;;;19.60;97.90;;;;;;4987366;28;20307;-83
2021/07/19 00:22:41;;;;;;;10.45;6.22;;;19.60;98.10;;;;;;4987406;28;20034;-84
2021/07/19 00:25:08;;;;;;;10.23;5.47;;;19.60;98.10;;;;;;4974260;28;20026;-84
2021/07/19 00:27:33;;;;;;;12.55;5.35;;;19.60;98.00;;;;;;4999030;28;20064;-83
2021/07/19 00:29:59;;;;;;;9.07;5.63;;;19.60;97.80;;;;;;4978174;28;20125;-83
2021/07/19 00:32:24;;;;;;;11.07;5.35;;;19.60;98.20;;;;;;4973787;28;20500;-83
2021/07/19 00:34:50;;;;;;;8.02;5.30;;;19.60;98.30;;;;;;5006760;28;20025;-83
2021/07/19 00:37:15;;;;;;;9.73;5.53;;;19.60;98.30;;;;;;4990329;28;20041;-84
2021/07/19 00:39:41;;;;;;;8.60;5.00;;;19.50;98.10;;;;;;4990570;28;20030;-83
2021/07/19 00:42:06;;;;;;;8.23;5.18;;;19.50;98.20;;;;;;4974089;28;20041;-83
2021/07/19 00:44:32;;;;;;;11.07;5.20;;;19.50;98.20;;;;;;4990069;28;20033;-83
2021/07/19 00:46:57;;;;;;;11.40;5.03;;;19.50;98.00;;;;;;4973836;28;20033;-83
2021/07/19 00:49:24;;;;;;;9.27;5.35;;;19.50;97.50;;;;;;4989598;28;20121;-83
2021/07/19 00:51:49;;;;;;;11.43;5.75;;;19.50;98.20;;;;;;4973802;28;20034;-83
2021/07/19 00:54:17;;;;;;;8.43;5.40;;;19.40;98.70;;;;;;4973673;28;20091;-84
2021/07/19 00:56:43;;;;;;;9.65;5.40;;;19.40;98.30;;;;;;4974130;28;20022;-83
2021/07/19 00:59:08;;;;;;;11.05;5.35;;;19.40;98.40;;;;;;4989765;28;20045;-83
2021/07/19 01:01:34;;;;;;;11.63;6.03;;;19.30;97.90;;;;;;4998380;28;20076;-83
2021/07/19 01:04:00;;;;;;;7.53;4.85;;;19.30;98.00;;;;;;4990073;28;20095;-83
2021/07/19 01:06:28;;;;;;;9.30;5.25;;;19.30;97.90;;;;;;4975444;28;20069;-83
2021/07/19 01:08:53;;;;;;;10.13;5.30;;;19.30;98.30;;;;;;4999044;28;20045;-83
2021/07/19 01:11:19;;;;;;;13.65;5.00;;;19.30;98.70;;;;;;4973735;28;20047;-84
2021/07/19 01:13:44;;;;;;;8.88;5.63;;;19.20;98.20;;;;;;4989672;28;20061;-84
2021/07/19 01:16:10;;;;;;;11.70;5.68;;;19.20;98.10;;;;;;5009018;28;20038;-84
2021/07/19 01:18:35;;;;;;;10.23;5.10;;;19.20;98.90;;;;;;4986019;28;20034;-84
2021/07/19 01:21:04;;;;;;;10.35;5.93;;;19.20;98.20;;;;;;4970164;28;20033;-84
2021/07/19 01:23:45;;;;;;;8.45;5.28;;;19.20;98.70;;;;;;4986598;28;20026;-84
2021/07/19 01:26:25;;;;;;;10.47;5.00;;;19.20;98.10;;;;;;4987777;28;20030;-83
2021/07/19 01:28:51;;;;;;;10.10;5.13;;;19.20;97.70;;;;;;4986354;28;20027;-83
2021/07/19 01:31:18;;;;;;;11.15;5.38;;;19.20;97.70;;;;;;4979584;28;20036;-83
2021/07/19 01:33:46;;;;;;;8.23;5.18;;;19.20;98.30;;;;;;5002853;28;20087;-83
2021/07/19 01:36:14;;;;;;;8.85;5.25;;;19.10;98.10;;;;;;5114455;22;20049;-84
2021/07/19 01:38:39;;;;;;;8.63;5.22;;;19.10;98.20;;;;;;4998653;28;20117;-84
2021/07/19 01:41:05;;;;;;;10.77;5.00;;;19.10;98.30;;;;;;4966271;28;20651;-84
2021/07/19 01:43:30;;;;;;;10.70;5.13;;;19.10;98.10;;;;;;4986144;28;20038;-84
2021/07/19 01:45:56;;;;;;;11.40;5.55;;;19.10;98.00;;;;;;4992524;28;20041;-84
2021/07/19 01:48:22;;;;;;;10.75;5.60;;;19.00;98.20;;;;;;4970101;28;20034;-84
2021/07/19 01:50:47;;;;;;;10.63;5.22;;;19.00;97.60;;;;;;4970156;28;20038;-83
2021/07/19 01:53:13;;;;;;;10.30;5.30;;;19.00;97.90;;;;;;4970337;28;20034;-83
2021/07/19 01:55:38;;;;;;;8.85;5.15;;;18.90;98.20;;;;;;4970659;28;20034;-83
2021/07/19 01:58:04;;;;;;;8.40;5.28;;;18.90;98.50;;;;;;4989831;28;20033;-84
2021/07/19 02:00:30;;;;;;;10.32;5.18;;;18.90;98.30;;;;;;4973563;28;20037;-85
2021/07/19 02:02:55;;;;;;;15.07;5.63;;;18.80;98.60;;;;;;4954622;28;20101;-83
2021/07/19 02:05:22;;;;;;;10.40;4.82;;;18.80;98.70;;;;;;4957571;28;20073;-84
2021/07/19 02:07:49;;;;;;;9.60;5.43;;;18.80;98.00;;;;;;4969832;28;20488;-83
2021/07/19 02:10:14;;;;;;;8.52;4.88;;;18.70;98.70;;;;;;4954504;28;20063;-84
2021/07/19 02:12:40;;;;;;;9.93;5.18;;;18.70;98.40;;;;;;4972898;28;20033;-85
2021/07/19 02:15:15;;;;;;;8.98;5.40;;;18.60;98.20;;;;;;4993049;28;20540;-84
2021/07/19 02:17:51;;;;;;;11.82;5.63;;;18.60;98.00;;;;;;4962853;28;20068;-83
2021/07/19 02:20:17;;;;;;;12.40;5.53;;;18.50;98.60;;;;;;4977277;28;20025;-84
2021/07/19 02:22:44;;;;;;;9.00;6.05;;;18.50;98.50;;;;;;5001095;28;20037;-84
2021/07/19 02:25:10;;;;;;;6.95;5.20;;;18.50;98.60;;;;;;4973580;28;20481;-84
2021/07/19 02:27:40;;;;;;;10.00;5.68;;;18.40;98.30;;;;;;4972960;28;20027;-84
2021/07/19 02:30:10;;;;;;;10.82;6.20;;;18.50;98.30;;;;;;4973333;28;20448;-84
2021/07/19 02:32:37;;;;;;;7.50;5.43;;;18.40;98.20;;;;;;4990027;28;20053;-84
2021/07/19 02:35:07;;;;;;;14.25;6.55;;;18.40;98.80;;;;;;4992414;28;20108;-84
2021/07/19 02:37:37;;;;;;;14.95;6.15;;;18.40;98.40;;;;;;4992811;28;20033;-84
2021/07/19 02:40:05;;;;;;;11.82;5.78;;;18.40;98.40;;;;;;4976835;28;20811;-83
2021/07/19 02:42:30;;;;;;;10.88;5.88;;;18.40;98.40;;;;;;4976335;28;20052;-83
2021/07/19 02:44:56;;;;;;;9.93;6.10;;;18.40;98.40;;;;;;4992500;28;20488;-84
2021/07/19 02:47:24;;;;;;;10.00;5.82;;;18.30;98.50;;;;;;4977536;28;20045;-84
2021/07/19 02:49:50;;;;;;;9.57;5.85;;;18.30;98.60;;;;;;4989085;28;20706;-83
2021/07/19 02:52:15;;;;;;;9.48;5.90;;;18.30;98.80;;;;;;4972919;28;20026;-84
2021/07/19 02:54:41;;;;;;;11.00;5.63;;;18.20;98.70;;;;;;4972589;28;20038;-84
2021/07/19 02:57:07;;;;;;;13.18;6.53;;;18.20;99.00;;;;;;4988666;28;20542;-84
2021/07/19 02:59:33;;;;;;;10.90;6.38;;;18.20;98.70;;;;;;4972710;28;20556;-84
2021/07/19 03:01:58;;;;;;;9.23;5.85;;;18.10;98.40;;;;;;4972572;28;20628;-83
2021/07/19 03:04:24;;;;;;;8.93;6.10;;;18.10;98.40;;;;;;4972033;28;20062;-84
2021/07/19 03:06:49;;;;;;;8.18;5.47;;;18.00;99.10;;;;;;4955222;28;20169;-83
2021/07/19 03:09:15;;;;;;;7.75;6.07;;;18.00;99.00;;;;;;4991366;28;20044;-84
2021/07/19 03:11:42;;;;;;;8.32;5.60;;;18.10;99.20;;;;;;4987132;28;20040;-84
2021/07/19 03:14:11;;;;;;;10.45;5.90;;;18.00;98.60;;;;;;4975924;28;20610;-84
2021/07/19 03:16:36;;;;;;;10.68;6.63;;;18.00;99.20;;;;;;4983603;28;20027;-84
2021/07/19 03:19:03;;;;;;;12.43;6.70;;;18.00;99.00;;;;;;4967865;28;20794;-83
2021/07/19 03:21:29;;;;;;;13.48;6.85;;;18.00;99.10;;;;;;4969422;28;20027;-83
2021/07/19 03:23:56;;;;;;;11.57;7.15;;;17.90;99.00;;;;;;4969291;28;20035;-84
2021/07/19 03:26:22;;;;;;;15.10;7.30;;;17.90;99.30;;;;;;4968991;28;20186;-83
2021/07/19 03:28:47;;;;;;;14.00;6.85;;;17.90;98.90;;;;;;4968600;28;20023;-85
2021/07/19 03:31:13;;;;;;;12.68;7.05;;;17.90;98.90;;;;;;4978199;28;20387;-84
2021/07/19 03:33:43;;;;;;;13.80;6.70;;;17.80;98.90;;;;;;4991951;28;20038;-83
2021/07/19 03:36:11;;;;;;;10.38;7.45;;;17.90;99.00;;;;;;4965704;28;20028;-83
2021/07/19 03:38:37;;;;;;;14.65;7.45;;;17.80;98.70;;;;;;4991180;28;20073;-84
2021/07/19 03:41:03;;;;;;;11.23;7.40;;;17.80;98.80;;;;;;4975688;28;20053;-83
2021/07/19 03:43:32;;;;;;;12.65;7.43;;;17.80;99.00;;;;;;4975851;28;20504;-83
2021/07/19 03:45:58;;;;;;;16.42;8.40;;;17.80;99.20;;;;;;4967876;28;20887;-84
2021/07/19 03:48:23;;;;;;;14.85;8.57;;;17.80;99.00;;;;;;4977505;28;20046;-83
2021/07/19 03:50:50;;;;;;;16.02;8.55;;;17.70;98.90;;;;;;4972125;28;20037;-82
2021/07/19 03:53:15;;;;;;;13.80;8.13;;;17.70;98.90;;;;;;4991362;28;20026;-84
2021/07/19 03:55:43;;;;;;;14.30;8.13;;;17.70;98.80;;;;;;4991141;28;20046;-85
2021/07/19 03:58:10;;;;;;;12.88;8.18;;;17.70;99.40;;;;;;4959566;28;20034;-83
2021/07/19 04:00:36;;;;;;;14.57;9.10;;;17.70;98.80;;;;;;4971608;28;20030;-83
2021/07/19 04:03:05;;;;;;;18.05;8.70;;;17.70;99.20;;;;;;4987272;28;20065;-83
2021/07/19 04:05:39;;;;;;;14.98;8.40;;;17.70;99.20;;;;;;4972676;28;20030;-83
2021/07/19 04:08:08;;;;;;;14.27;8.48;;;17.70;98.90;;;;;;4992036;28;20026;-83
2021/07/19 04:10:34;;;;;;;15.65;9.50;;;17.70;99.00;;;;;;4991557;28;20018;-83
2021/07/19 04:12:59;;;;;;;14.30;9.38;;;17.70;99.70;;;;;;4990835;28;20025;-84
2021/07/19 04:15:26;;;;;;;14.68;9.02;;;17.60;99.00;;;;;;4976432;28;20385;-83
2021/07/19 04:17:52;;;;;;;15.98;9.05;;;17.70;99.40;;;;;;4967492;28;20039;-83
2021/07/19 04:20:18;;;;;;;14.23;9.45;;;17.60;99.10;;;;;;4951820;28;20387;-83
2021/07/19 04:22:44;;;;;;;16.00;9.43;;;17.70;99.50;;;;;;4957412;28;20649;-83
2021/07/19 04:25:10;;;;;;;13.23;9.05;;;17.70;99.40;;;;;;4971286;28;20107;-83
2021/07/19 04:27:41;;;;;;;17.85;10.07;;;17.70;99.20;;;;;;4970839;28;20044;-83
2021/07/19 04:30:06;;;;;;;13.90;9.88;;;17.60;99.40;;;;;;4987478;28;20026;-84
2021/07/19 04:32:32;;;;;;;16.70;10.40;;;17.60;99.20;;;;;;4970954;28;20049;-83
2021/07/19 04:34:57;;;;;;;14.57;10.23;;;17.70;99.30;;;;;;4987561;28;20054;-83
2021/07/19 04:37:23;;;;;;;14.20;9.60;;;17.60;99.20;;;;;;4970541;28;20073;-84
2021/07/19 04:39:49;;;;;;;20.00;10.45;;;17.70;99.20;;;;;;4981411;28;20137;-83
2021/07/19 04:42:14;;;;;;;15.90;10.02;;;17.60;99.00;;;;;;4990156;28;20615;-84
2021/07/19 04:44:40;;;;;;;14.90;9.95;;;17.70;99.30;;;;;;4972491;28;20097;-83
2021/07/19 04:47:07;;;;;;;17.95;10.18;;;17.70;99.00;;;;;;4957610;28;20034;-83
2021/07/19 04:49:35;;;;;;;15.35;10.82;;;17.70;99.10;;;;;;4979276;28;20026;-84
2021/07/19 04:52:01;;;;;;;17.00;11.35;;;17.70;99.70;;;;;;4970237;28;20034;-84
2021/07/19 04:54:28;;;;;;;15.13;10.27;;;17.70;99.40;;;;;;4978435;28;20026;-84
2021/07/19 04:56:55;;;;;;;20.42;11.00;;;17.70;98.90;;;;;;4970711;28;20202;-83
2021/07/19 04:59:20;;;;;;;17.58;10.73;;;17.80;99.10;;;;;;4976976;28;20018;-83
2021/07/19 05:01:47;;;;;;;17.10;10.50;;;17.80;99.30;;;;;;4960076;28;20033;-84
2021/07/19 05:04:13;;;;;;;18.75;11.00;;;17.80;99.00;;;;;;4935476;28;20062;-83
2021/07/19 05:06:41;;;;;;;17.65;10.80;;;17.80;99.10;;;;;;4970333;28;20030;-84
2021/07/19 05:09:06;;;;;;;16.92;10.55;;;17.90;99.20;;;;;;4959060;28;20129;-83
2021/07/19 05:11:32;;;;;;;18.35;11.30;;;17.90;98.90;;;;;;4964807;28;20113;-83
2021/07/19 05:13:58;;;;;;;18.92;12.57;;;17.90;98.80;;;;;;4970581;28;20030;-83
2021/07/19 05:16:23;;;;;;;19.73;12.45;;;18.00;98.90;;;;;;4991797;28;20040;-84
2021/07/19 05:18:49;;;;;;;19.52;11.80;;;18.00;98.90;;;;;;4973658;28;20062;-84
2021/07/19 05:21:14;;;;;;;21.20;11.25;;;18.00;98.80;;;;;;4970368;28;20114;-83
2021/07/19 05:23:42;;;;;;;30.85;12.98;;;18.00;98.80;;;;;;4994601;28;20064;-84
2021/07/19 05:26:08;;;;;;;21.55;11.80;;;18.00;98.60;;;;;;4990014;28;20030;-83
2021/07/19 05:28:33;;;;;;;20.88;11.82;;;18.10;98.60;;;;;;4989940;28;20171;-84
2021/07/19 05:30:59;;;;;;;26.35;12.40;;;18.10;98.60;;;;;;4993107;28;20064;-84
2021/07/19 05:33:25;;;;;;;19.05;11.52;;;18.10;98.50;;;;;;4983725;28;20027;-84
2021/07/19 05:35:51;;;;;;;22.85;11.80;;;18.10;98.80;;;;;;4985188;28;20024;-83
2021/07/19 05:38:17;;;;;;;19.13;11.68;;;18.20;98.70;;;;;;4975741;28;20092;-83
2021/07/19 05:40:43;;;;;;;18.88;12.52;;;18.20;98.60;;;;;;4971398;28;20069;-83
2021/07/19 05:43:08;;;;;;;16.70;11.80;;;18.20;98.60;;;;;;4974357;28;20030;-83
2021/07/19 05:45:34;;;;;;;19.25;12.60;;;18.20;98.50;;;;;;4990603;28;20069;-83
2021/07/19 05:47:59;;;;;;;19.02;11.70;;;18.20;98.60;;;;;;4972957;28;20034;-84
2021/07/19 05:50:26;;;;;;;18.90;12.57;;;18.30;98.50;;;;;;4957891;28;20420;-83
2021/07/19 05:52:51;;;;;;;21.02;13.45;;;18.30;98.40;;;;;;4973959;28;20061;-84
2021/07/19 05:55:17;;;;;;;19.98;12.63;;;18.30;98.30;;;;;;4973467;28;20113;-83
2021/07/19 05:57:42;;;;;;;21.98;12.45;;;18.40;98.40;;;;;;4990262;28;20026;-84
2021/07/19 06:00:11;;;;;;;20.02;12.40;;;18.40;98.20;;;;;;4974038;28;20520;-84
2021/07/19 06:02:36;;;;;;;20.27;12.30;;;18.40;98.20;;;;;;4981074;28;20054;-83
2021/07/19 06:05:02;;;;;;;23.77;12.95;;;18.40;98.50;;;;;;4957833;28;20164;-84
2021/07/19 06:07:28;;;;;;;20.63;13.15;;;18.50;98.50;;;;;;4973267;28;20141;-83
2021/07/19 06:09:53;;;;;;;23.70;12.75;;;18.50;98.40;;;;;;4990015;28;20026;-84
2021/07/19 06:12:19;;;;;;;22.05;12.27;;;18.50;98.20;;;;;;4989918;28;20034;-84
2021/07/19 06:14:44;;;;;;;23.33;12.38;;;18.50;98.30;;;;;;4973525;28;20057;-83
2021/07/19 06:17:12;;;;;;;18.80;12.20;;;18.60;98.10;;;;;;4973410;28;20030;-83
2021/07/19 06:19:38;;;;;;;20.73;12.30;;;18.60;98.00;;;;;;4974147;28;20030;-83
2021/07/19 06:22:04;;;;;;;23.58;11.30;;;18.60;97.90;;;;;;4973784;28;20018;-83
2021/07/19 06:24:29;;;;;;;21.67;12.75;;;18.70;97.70;;;;;;4973598;28;20030;-83
2021/07/19 06:26:55;;;;;;;19.98;11.68;;;18.70;97.90;;;;;;4973468;28;20169;-85
2021/07/19 06:29:20;;;;;;;18.65;12.02;;;18.70;97.80;;;;;;4973310;28;20029;-83
2021/07/19 06:31:46;;;;;;;16.20;11.07;;;18.80;97.50;;;;;;4989399;28;20409;-84
2021/07/19 06:34:11;;;;;;;22.00;12.10;;;18.80;97.60;;;;;;4989690;28;20049;-84
2021/07/19 06:36:37;;;;;;;20.23;11.93;;;18.80;97.40;;;;;;4973183;28;20073;-83
2021/07/19 06:39:03;;;;;;;17.55;11.10;;;18.90;97.40;;;;;;4974347;28;20042;-84
2021/07/19 06:41:29;;;;;;;20.35;11.10;;;18.90;97.30;;;;;;4967005;28;20588;-84
2021/07/19 06:43:54;;;;;;;17.52;11.73;;;18.90;97.20;;;;;;4954193;28;20038;-84
2021/07/19 06:46:20;;;;;;;19.98;13.00;;;18.90;97.10;;;;;;4956789;28;20613;-83
2021/07/19 06:48:46;;;;;;;19.75;12.43;;;19.00;97.00;;;;;;4962747;28;20568;-84
2021/07/19 06:51:11;;;;;;;20.70;12.32;;;19.00;96.90;;;;;;4979509;28;20056;-84
2021/07/19 06:53:37;;;;;;;19.88;11.88;;;19.00;96.90;;;;;;4972723;28;20121;-84
2021/07/19 06:56:02;;;;;;;17.23;12.52;;;19.00;96.60;;;;;;4972902;28;20030;-84
2021/07/19 06:58:28;;;;;;;26.00;12.88;;;19.10;96.60;;;;;;4989957;28;20030;-84
2021/07/19 07:00:53;;;;;;;19.27;12.80;;;19.10;96.50;;;;;;4960298;28;20038;-85
2021/07/19 07:03:19;;;;;;;23.33;13.07;;;19.10;96.20;;;;;;4953414;28;20030;-83
2021/07/19 07:05:44;;;;;;;19.90;11.70;;;19.10;96.00;;;;;;4976230;28;20033;-84
2021/07/19 07:08:10;;;;;;;21.85;13.07;;;19.10;96.00;;;;;;4991848;28;20038;-84
2021/07/19 07:10:35;;;;;;;18.70;12.00;;;19.20;96.10;;;;;;4988098;28;20061;-84
2021/07/19 07:13:01;;;;;;;19.27;11.27;;;19.20;96.00;;;;;;4966249;28;20033;-84
2021/07/19 07:15:26;;;;;;;19.30;12.68;;;19.20;96.10;;;;;;4982291;28;20034;-84
2021/07/19 07:17:52;;;;;;;21.30;12.95;;;19.20;96.00;;;;;;4952772;28;20042;-84
2021/07/19 07:20:18;;;;;;;20.90;13.00;;;19.30;95.80;;;;;;4956041;28;20097;-84
2021/07/19 07:22:44;;;;;;;20.05;12.80;;;19.30;95.90;;;;;;4976499;28;20031;-84
2021/07/19 07:25:10;;;;;;;18.90;11.70;;;19.40;95.80;;;;;;4937410;28;20506;-83
2021/07/19 07:27:36;;;;;;;15.07;10.68;;;19.40;95.90;;;;;;4956157;28;20046;-82
2021/07/19 07:30:07;;;;;;;17.33;10.55;;;19.40;95.50;;;;;;4965551;28;20374;-83
2021/07/19 07:32:36;;;;;;;49.47;12.52;;;19.50;95.70;;;;;;4958703;28;20310;-83
2021/07/19 07:35:55;;;;;;;16.38;10.23;;;19.50;95.60;;;;;;4988145;28;20037;-85
2021/07/19 07:41:47;;;;;;;20.63;12.25;;;19.60;95.10;;;;;;4981745;28;20065;-85
2021/07/19 07:44:16;;;;;;;16.67;10.88;;;19.60;94.90;;;;;;4969189;28;20046;-86
2021/07/19 07:46:44;;;;;;;17.00;11.25;;;19.60;95.20;;;;;;4969712;28;20035;-88
2021/07/19 07:49:10;;;;;;;20.13;11.70;;;19.70;95.20;;;;;;4956085;28;20187;-87
2021/07/19 07:51:35;;;;;;;17.55;11.00;;;19.60;95.00;;;;;;4962266;28;20193;-86
2021/07/19 07:54:01;;;;;;;21.13;10.75;;;19.70;95.20;;;;;;4974995;28;20117;-84
2021/07/19 07:56:27;;;;;;;16.35;11.02;;;19.70;95.10;;;;;;4991634;28;20117;-85
2021/07/19 07:58:52;;;;;;;20.38;11.77;;;19.70;94.80;;;;;;4984509;28;20128;-84
2021/07/19 08:01:18;;;;;;;19.08;12.25;;;19.70;94.80;;;;;;4972259;28;20444;-85
2021/07/19 08:03:43;;;;;;;17.73;11.70;;;19.80;95.00;;;;;;4973513;28;20057;-85
2021/07/19 08:06:09;;;;;;;16.80;11.30;;;19.70;94.90;;;;;;4988193;28;20524;-85
2021/07/19 08:08:34;;;;;;;36.53;13.25;;;19.80;94.90;;;;;;4971722;28;20030;-85
2021/07/19 08:11:00;;;;;;;16.27;11.60;;;19.80;94.90;;;;;;4955690;28;20402;-85
2021/07/19 08:13:26;;;;;;;17.98;11.40;;;19.80;94.80;;;;;;4952622;28;20118;-85
2021/07/19 08:15:52;;;;;;;19.10;11.45;;;19.80;94.80;;;;;;4952471;28;20089;-85
2021/07/19 08:18:17;;;;;;;25.80;12.88;;;19.80;94.90;;;;;;4951835;28;20110;-85
2021/07/19 08:20:44;;;;;;;41.28;14.77;;;19.80;94.20;;;;;;4956202;28;20459;-86
2021/07/19 08:23:09;;;;;;;21.27;13.45;;;19.80;94.00;;;;;;4971535;28;20026;-85
2021/07/19 08:25:35;;;;;;;22.98;13.77;;;19.90;94.00;;;;;;4962073;28;20030;-86
2021/07/19 08:28:00;;;;;;;33.20;13.70;;;19.80;93.70;;;;;;4967161;28;20398;-86
2021/07/19 08:30:26;;;;;;;52.55;15.48;;;19.80;93.90;;;;;;4941897;28;20037;-85
2021/07/19 08:32:52;;;;;;;70.22;15.05;;;19.90;94.10;;;;;;4951867;28;20529;-85
2021/07/19 08:35:17;;;;;;;26.20;12.77;;;19.80;94.40;;;;;;4964248;28;20038;-84
2021/07/19 08:37:45;;;;;;;20.63;13.02;;;19.80;94.30;;;;;;4987279;28;20029;-85
2021/07/19 08:40:11;;;;;;;19.35;14.07;;;19.90;94.40;;;;;;4977911;28;20030;-85
2021/07/19 08:42:37;;;;;;;24.75;14.57;;;19.80;93.80;;;;;;4974515;28;20091;-86
2021/07/19 08:45:04;;;;;;;24.23;14.48;;;19.80;94.00;;;;;;4990365;28;20492;-86
2021/07/19 08:47:30;;;;;;;38.67;14.48;;;19.80;94.30;;;;;;4990383;28;20033;-86
2021/07/19 08:49:56;;;;;;;24.20;13.27;;;19.80;94.50;;;;;;4975322;28;20104;-86
2021/07/19 08:52:21;;;;;;;27.08;13.68;;;19.80;94.20;;;;;;4955194;28;20026;-85
2021/07/19 08:54:48;;;;;;;17.02;11.73;;;19.80;94.30;;;;;;4982834;28;20034;-85
2021/07/19 08:57:14;;;;;;;19.08;13.60;;;19.70;94.10;;;;;;4950675;28;20494;-88
2021/07/19 08:59:40;;;;;;;21.60;14.45;;;19.80;94.40;;;;;;4984016;28;20027;-87
2021/07/19 09:02:10;;;;;;;22.25;13.90;;;19.80;94.40;;;;;;4967806;28;20478;-86
2021/07/19 09:04:36;;;;;;;18.20;14.10;;;19.80;94.20;;;;;;4983692;28;20050;-86
2021/07/19 09:07:03;;;;;;;23.77;14.90;;;19.80;94.30;;;;;;4974146;28;20125;-87
2021/07/19 09:09:32;;;;;;;23.27;13.82;;;19.80;94.10;;;;;;4952726;28;20061;-87
2021/07/19 09:11:58;;;;;;;19.77;14.18;;;19.70;94.00;;;;;;4971003;28;20623;-87
2021/07/19 09:14:24;;;;;;;20.95;14.57;;;19.80;94.20;;;;;;4950892;28;20122;-87
2021/07/19 09:16:51;;;;;;;18.17;14.35;;;19.80;94.10;;;;;;4952107;28;20141;-87
2021/07/19 09:19:19;;;;;;;20.67;13.90;;;19.90;94.20;;;;;;4951457;28;20054;-87
2021/07/19 09:21:47;;;;;;;21.52;14.93;;;19.90;93.90;;;;;;4951333;28;20030;-86
2021/07/19 09:24:14;;;;;;;20.45;14.45;;;19.90;93.70;;;;;;4953088;28;20070;-87
2021/07/19 09:26:41;;;;;;;20.17;14.30;;;19.90;93.80;;;;;;4935692;28;20561;-87
2021/07/19 09:29:08;;;;;;;30.50;14.30;;;20.00;94.30;;;;;;4935645;28;20042;-87
2021/07/19 09:31:57;;;;;;;23.52;14.35;;;20.10;94.10;;;;;;4951315;28;20045;-87
2021/07/19 09:34:27;;;;;;;18.23;13.52;;;20.10;93.90;;;;;;4958036;28;20039;-86
2021/07/19 09:37:00;;;;;;;19.85;13.82;;;20.10;93.30;;;;;;4951602;28;20038;-86
2021/07/19 09:39:27;;;;;;;19.25;13.40;;;20.20;93.10;;;;;;4966987;28;20027;-89
2021/07/19 09:42:12;;;;;;;16.88;13.38;;;20.20;93.30;;;;;;4983673;28;20041;-88
2021/07/19 09:44:38;;;;;;;19.67;14.05;;;20.20;93.00;;;;;;4987126;28;20042;-87
2021/07/19 09:47:06;;;;;;;20.88;14.40;;;20.20;92.80;;;;;;4970902;28;20022;-88
2021/07/19 09:49:32;;;;;;;20.10;14.15;;;20.20;93.20;;;;;;4970425;28;20030;-84
2021/07/19 09:51:59;;;;;;;17.27;12.52;;;20.30;93.40;;;;;;4970046;28;20634;-85
2021/07/19 09:54:32;;;;;;;25.17;14.15;;;20.20;93.50;;;;;;4987159;28;20026;-84
2021/07/19 09:57:00;;;;;;;22.70;13.68;;;20.30;93.40;;;;;;4987311;28;20489;-84
2021/07/19 09:59:25;;;;;;;19.88;13.15;;;20.30;92.70;;;;;;4969666;28;20038;-83
2021/07/19 10:01:54;;;;;;;17.23;13.13;;;20.30;93.20;;;;;;4985171;28;20035;-88
2021/07/19 10:04:30;;;;;;;17.70;12.40;;;20.30;92.80;;;;;;4969246;28;20069;-89
2021/07/19 10:07:04;;;;;;;21.17;13.40;;;20.30;92.80;;;;;;4975919;28;20038;-90
2021/07/19 10:09:29;;;;;;;19.05;13.32;;;20.40;92.40;;;;;;4971381;28;20038;-88
2021/07/19 10:11:56;;;;;;;16.55;12.80;;;20.40;92.20;;;;;;4970415;28;20038;-88
2021/07/19 10:14:31;;;;;;;20.83;12.73;;;20.50;92.60;;;;;;4967817;28;20033;-88
2021/07/19 10:17:00;;;;;;;25.17;13.73;;;20.60;92.40;;;;;;4955737;28;20077;-90
2021/07/19 10:19:26;;;;;;;17.75;12.70;;;20.60;92.40;;;;;;4993749;28;20025;-91
2021/07/19 10:21:56;;;;;;;17.13;13.00;;;20.60;92.30;;;;;;4974465;28;20073;-90
2021/07/19 10:24:32;;;;;;;20.40;13.85;;;20.70;92.60;;;;;;4958988;28;20126;-90
2021/07/19 10:26:58;;;;;;;18.77;13.73;;;20.70;92.40;;;;;;4962539;28;20456;-90
2021/07/19 10:29:23;;;;;;;18.65;13.98;;;20.70;92.20;;;;;;4977591;28;20077;-91
2021/07/19 10:31:49;;;;;;;19.00;13.20;;;20.70;91.80;;;;;;4987051;28;20114;-91
2021/07/19 10:34:15;;;;;;;18.25;13.77;;;20.70;92.30;;;;;;4981020;28;20034;-90
2021/07/19 10:36:54;;;;;;;17.95;13.52;;;20.60;92.20;;;;;;4980093;28;20501;-90
2021/07/19 10:39:36;;;;;;;20.17;13.90;;;20.60;92.50;;;;;;4980413;28;20034;-89
2021/07/19 10:42:47;;;;;;;22.88;14.23;;;20.70;91.70;;;;;;4964038;28;20027;-90
2021/07/19 10:45:17;;;;;;;17.02;12.85;;;20.70;92.20;;;;;;4951815;28;20517;-89
2021/07/19 10:47:53;;;;;;;20.20;14.27;;;20.70;92.10;;;;;;4969860;28;20046;-89
2021/07/19 10:50:25;;;;;;;20.25;14.85;;;20.70;92.40;;;;;;4971315;28;20526;-88
2021/07/19 10:52:55;;;;;;;21.08;15.13;;;20.80;92.70;;;;;;4973770;28;20031;-89
2021/07/19 10:55:36;;;;;;;24.42;14.98;;;20.80;92.80;;;;;;4973888;28;20038;-89
2021/07/19 10:58:16;;;;;;;25.33;18.98;;;20.80;92.40;;;;;;4943400;28;20034;-89
2021/07/19 11:01:09;;;;;;;23.23;18.65;;;20.90;92.40;;;;;;4945898;28;20038;-91
2021/07/19 11:03:48;;;;;;;27.45;17.38;;;21.00;92.00;;;;;;4974400;28;20181;-91
2021/07/19 11:06:35;;;;;;;26.70;18.25;;;21.10;91.30;;;;;;4977757;28;20025;-90
2021/07/19 11:09:04;;;;;;;23.00;17.63;;;21.10;90.10;;;;;;4994756;28;20034;-89
2021/07/19 11:11:33;;;;;;;23.65;17.73;;;21.20;91.10;;;;;;4993080;28;20655;-91
2021/07/19 11:14:07;;;;;;;26.83;19.33;;;21.30;91.20;;;;;;4992755;28;20041;-88
2021/07/19 11:16:50;;;;;;;27.63;19.77;;;21.30;90.80;;;;;;4988040;28;20022;-90
2021/07/19 11:19:16;;;;;;;28.42;20.67;;;21.30;91.40;;;;;;4957701;28;20033;-87
2021/07/19 11:21:46;;;;;;;27.27;21.27;;;21.40;91.60;;;;;;4957145;28;20030;-90
2021/07/19 11:24:16;;;;;;;30.75;20.75;;;21.40;91.50;;;;;;5005295;28;20033;-87
2021/07/19 11:26:53;;;;;;;29.58;20.00;;;21.40;91.30;;;;;;4972417;28;20030;-88
2021/07/19 11:29:45;;;;;;;28.13;19.85;;;21.50;91.40;;;;;;4972020;28;20026;-88
2021/07/19 11:32:18;;;;;;;31.30;20.15;;;21.50;91.40;;;;;;4970309;28;20046;-88
2021/07/19 11:34:46;;;;;;;26.25;19.08;;;21.50;90.60;;;;;;4987998;28;20117;-86
2021/07/19 11:37:11;;;;;;;28.98;20.70;;;21.50;90.90;;;;;;4971395;28;20031;-89
2021/07/19 11:39:45;;;;;;;26.45;20.38;;;21.50;91.10;;;;;;4981819;28;20145;-89
2021/07/19 11:42:12;;;;;;;27.60;21.88;;;21.50;90.20;;;;;;4993302;28;20109;-89
2021/07/19 11:44:42;;;;;;;30.42;23.63;;;21.60;91.20;;;;;;4976101;28;20057;-87
2021/07/19 11:47:08;;;;;;;31.20;24.23;;;21.60;91.40;;;;;;4957761;28;20379;-88
2021/07/19 11:49:34;;;;;;;28.40;22.90;;;21.60;90.70;;;;;;4957069;28;20041;-88
2021/07/19 11:51:59;;;;;;;29.65;21.75;;;21.60;91.30;;;;;;4976642;28;20038;-88
2021/07/19 11:54:25;;;;;;;26.92;20.83;;;21.70;91.50;;;;;;4975799;28;20428;-89
2021/07/19 11:56:55;;;;;;;28.20;20.42;;;21.70;91.80;;;;;;4991353;28;20033;-87
2021/07/19 11:59:24;;;;;;;27.85;19.15;;;21.70;91.70;;;;;;4975010;28;20113;-88
2021/07/19 12:02:00;;;;;;;25.95;19.20;;;21.70;90.10;;;;;;4957327;28;20057;-89
2021/07/19 12:04:38;;;;;;;27.13;17.98;;;21.60;89.80;;;;;;4980404;28;20093;-88
2021/07/19 12:07:04;;;;;;;25.27;18.58;;;21.70;88.40;;;;;;4977339;28;20027;-88
2021/07/19 12:09:30;;;;;;;26.08;18.90;;;21.70;88.70;;;;;;4955842;28;20030;-88
2021/07/19 12:11:55;;;;;;;24.15;18.38;;;21.80;88.90;;;;;;4955499;28;20109;-89
2021/07/19 12:14:21;;;;;;;26.77;20.30;;;21.80;88.90;;;;;;4971558;28;20026;-89
2021/07/19 12:16:46;;;;;;;26.15;20.95;;;21.90;88.50;;;;;;4954581;28;20073;-90
2021/07/19 12:19:16;;;;;;;28.00;21.42;;;21.90;89.50;;;;;;4954759;28;20109;-90
2021/07/19 12:21:46;;;;;;;28.23;19.45;;;22.00;90.30;;;;;;4970396;28;20019;-87
2021/07/19 12:24:12;;;;;;;28.52;18.20;;;22.00;89.50;;;;;;4971243;28;20031;-89
2021/07/19 12:26:40;;;;;;;26.83;18.98;;;21.90;86.10;;;;;;4971040;28;20402;-90
2021/07/19 12:29:23;;;;;;;22.13;17.48;;;21.90;87.00;;;;;;4956264;28;20034;-88
2021/07/19 12:31:54;;;;;;;24.45;19.10;;;21.90;88.50;;;;;;4972542;28;20041;-88
2021/07/19 12:34:20;;;;;;;;;;;22.00;85.90;;;;;;4970386;28;20564;-88
2021/07/19 12:36:51;;;;;;;20.42;15.75;;;22.00;86.50;;;;;;4952095;28;19952;-88
2021/07/19 12:39:21;;;;;;;21.67;14.95;;;22.00;88.20;;;;;;4953464;28;20022;-88